createdAt,value
2019-03-13T00:00:56.516Z,49.96
2019-03-13T00:02:21.031Z,49.97
2019-03-13T00:03:24.350Z,49.99
2019-03-13T00:04:27.459Z,49.96
2019-03-13T00:05:30.620Z,50.04
2019-03-13T00:06:33.791Z,50.01
2019-03-13T00:07:37.179Z,49.96
2019-03-13T00:08:40.312Z,49.99
2019-03-13T00:09:43.434Z,49.94
2019-03-13T00:10:46.441Z,49.97
2019-03-13T00:11:50.094Z,49.94
2019-03-13T00:12:54.048Z,49.97
2019-03-13T00:13:57.700Z,49.95
2019-03-13T00:15:01.168Z,50.02
2019-03-13T00:16:04.896Z,50.01
2019-03-13T00:17:08.456Z,49.96
2019-03-13T00:18:12.324Z,50.01
2019-03-13T00:19:15.983Z,49.95
2019-03-13T00:20:19.372Z,50.01
2019-03-13T00:21:22.814Z,49.98
2019-03-13T00:22:25.801Z,50.00
2019-03-13T00:23:29.478Z,49.94
2019-03-13T00:24:35.759Z,49.93
2019-03-13T00:25:39.307Z,49.89
2019-03-13T00:26:45.460Z,49.99
2019-03-13T00:27:49.046Z,49.95
2019-03-13T00:28:52.550Z,49.98
2019-03-13T00:29:55.126Z,49.98
2019-03-13T00:30:57.715Z,49.99
2019-03-13T00:31:59.929Z,49.93
2019-03-13T00:33:02.152Z,49.96
2019-03-13T00:34:04.380Z,49.98
2019-03-13T00:35:06.590Z,50.05
2019-03-13T00:36:08.796Z,49.98
2019-03-13T00:37:11.010Z,50.07
2019-03-13T00:38:14.549Z,50.06
2019-03-13T00:39:16.755Z,49.95
2019-03-13T00:40:18.952Z,50.04
2019-03-13T00:41:21.160Z,50.02
2019-03-13T00:42:23.355Z,50.07
2019-03-13T00:43:25.573Z,50.14
2019-03-13T00:44:27.932Z,50.11
2019-03-13T00:45:30.104Z,50.04
2019-03-13T00:46:32.316Z,50.04
2019-03-13T00:47:34.646Z,50.03
2019-03-13T00:48:36.856Z,50.07
2019-03-13T00:49:39.089Z,50.17
2019-03-13T00:50:41.415Z,50.23
2019-03-13T00:51:43.647Z,50.17
2019-03-13T00:52:45.850Z,50.10
2019-03-13T00:53:48.040Z,50.15
2019-03-13T00:54:50.275Z,50.07
2019-03-13T00:55:52.478Z,50.08
2019-03-13T00:56:54.683Z,50.14
2019-03-13T00:57:56.892Z,50.09
2019-03-13T00:58:59.089Z,50.15
2019-03-13T01:00:01.333Z,50.17
2019-03-13T01:01:37.848Z,50.09
2019-03-13T01:02:43.461Z,50.12
2019-03-13T01:03:49.737Z,50.11
2019-03-13T01:05:05.943Z,50.17
2019-03-13T01:06:11.570Z,50.12
2019-03-13T01:07:13.771Z,50.14
2019-03-13T01:08:15.983Z,50.11
2019-03-13T01:09:18.267Z,50.15
2019-03-13T01:10:20.442Z,50.11
2019-03-13T01:11:22.640Z,50.09
2019-03-13T01:12:24.843Z,50.11
2019-03-13T01:13:27.024Z,50.18
2019-03-13T01:14:29.215Z,50.12
2019-03-13T01:15:31.639Z,50.16
2019-03-13T01:16:33.849Z,50.13
2019-03-13T01:17:38.803Z,50.13
2019-03-13T01:18:39.905Z,50.20
2019-03-13T01:19:42.146Z,50.14
2019-03-13T01:20:44.342Z,50.17
2019-03-13T01:21:46.556Z,50.19
2019-03-13T01:22:48.776Z,50.21
2019-03-13T01:23:50.990Z,50.22
2019-03-13T01:24:53.200Z,50.23
2019-03-13T01:25:58.211Z,50.12
2019-03-13T01:27:00.417Z,50.10
2019-03-13T01:28:02.637Z,50.21
2019-03-13T01:29:04.857Z,50.19
2019-03-13T01:30:07.396Z,50.20
2019-03-13T01:31:34.653Z,50.14
2019-03-13T01:32:49.419Z,50.24
2019-03-13T01:33:51.637Z,50.19
2019-03-13T01:35:00.056Z,50.25
2019-03-13T01:36:03.781Z,50.17
2019-03-13T01:37:05.996Z,50.16
2019-03-13T01:38:08.227Z,50.21
2019-03-13T01:39:10.523Z,50.18
2019-03-13T01:40:15.229Z,50.19
2019-03-13T01:41:17.463Z,50.20
2019-03-13T01:42:19.717Z,50.24
2019-03-13T01:43:22.996Z,50.27
2019-03-13T01:44:25.202Z,50.28
2019-03-13T01:45:27.400Z,50.21
2019-03-13T01:46:29.637Z,50.28
2019-03-13T01:47:31.829Z,50.29
2019-03-13T01:48:34.037Z,50.21
2019-03-13T01:49:36.323Z,50.20
2019-03-13T01:50:38.525Z,50.27
2019-03-13T01:51:40.745Z,50.26
2019-03-13T01:52:42.951Z,50.23
2019-03-13T01:53:45.161Z,50.23
2019-03-13T01:54:47.361Z,50.29
2019-03-13T01:55:49.560Z,50.23
2019-03-13T01:56:51.883Z,50.19
2019-03-13T01:57:54.089Z,50.29
2019-03-13T01:58:56.290Z,50.21
2019-03-13T01:59:58.481Z,50.33
2019-03-13T02:01:00.697Z,50.21
2019-03-13T02:02:02.912Z,50.23
2019-03-13T02:03:05.104Z,50.26
2019-03-13T02:04:09.635Z,50.17
2019-03-13T02:05:11.843Z,50.22
2019-03-13T02:06:14.045Z,50.23
2019-03-13T02:07:16.333Z,50.26
2019-03-13T02:08:18.533Z,50.23
2019-03-13T02:09:20.746Z,50.21
2019-03-13T02:10:23.062Z,50.23
2019-03-13T02:11:25.257Z,50.25
2019-03-13T02:12:27.508Z,50.28
2019-03-13T02:13:29.744Z,50.27
2019-03-13T02:14:31.948Z,50.23
2019-03-13T02:15:34.145Z,50.23
2019-03-13T02:16:36.362Z,50.27
2019-03-13T02:17:38.588Z,50.22
2019-03-13T02:18:40.790Z,50.26
2019-03-13T02:19:42.998Z,50.22
2019-03-13T02:20:45.201Z,50.26
2019-03-13T02:21:47.401Z,50.27
2019-03-13T02:22:49.639Z,50.27
2019-03-13T02:23:51.855Z,50.22
2019-03-13T02:24:54.374Z,50.21
2019-03-13T02:25:56.685Z,50.26
2019-03-13T02:26:58.938Z,50.31
2019-03-13T02:28:01.150Z,50.27
2019-03-13T02:29:03.353Z,50.29
2019-03-13T02:30:05.570Z,50.22
2019-03-13T02:31:07.770Z,50.21
2019-03-13T02:32:09.976Z,50.26
2019-03-13T02:33:12.556Z,50.20
2019-03-13T02:34:14.802Z,50.23
2019-03-13T02:35:16.964Z,50.21
2019-03-13T02:36:19.165Z,50.24
2019-03-13T02:37:21.469Z,50.21
2019-03-13T02:38:23.704Z,50.20
2019-03-13T02:39:25.887Z,50.23
2019-03-13T02:40:30.286Z,50.28
2019-03-13T02:41:32.471Z,50.27
2019-03-13T02:42:34.675Z,50.26
2019-03-13T02:43:36.914Z,50.25
2019-03-13T02:44:39.135Z,50.27
2019-03-13T02:45:41.351Z,50.26
2019-03-13T02:46:43.584Z,50.25
2019-03-13T02:47:45.768Z,50.22
2019-03-13T02:48:48.003Z,50.23
2019-03-13T02:49:50.210Z,50.22
2019-03-13T02:50:52.481Z,50.18
2019-03-13T02:51:54.631Z,50.21
2019-03-13T02:52:56.836Z,50.22
2019-03-13T02:53:59.068Z,50.16
2019-03-13T02:55:01.321Z,50.21
2019-03-13T02:56:03.525Z,50.19
2019-03-13T02:57:05.728Z,50.25
2019-03-13T02:58:07.938Z,50.27
2019-03-13T02:59:10.144Z,50.21
2019-03-13T03:00:13.249Z,50.17
2019-03-13T03:01:23.829Z,50.14
2019-03-13T03:02:30.126Z,50.12
2019-03-13T03:03:38.160Z,50.12
2019-03-13T03:04:40.404Z,50.16
2019-03-13T03:05:42.601Z,50.15
2019-03-13T03:06:44.814Z,50.19
2019-03-13T03:07:47.024Z,50.17
2019-03-13T03:08:49.221Z,50.20
2019-03-13T03:09:51.456Z,50.16
2019-03-13T03:10:55.218Z,50.16
2019-03-13T03:11:57.422Z,50.17
2019-03-13T03:12:59.618Z,50.09
2019-03-13T03:14:01.804Z,50.16
2019-03-13T03:15:04.014Z,50.15
2019-03-13T03:16:06.211Z,50.10
2019-03-13T03:17:08.930Z,50.14
2019-03-13T03:18:11.197Z,50.14
2019-03-13T03:19:13.399Z,50.17
2019-03-13T03:20:15.632Z,50.20
2019-03-13T03:21:17.922Z,50.10
2019-03-13T03:22:20.113Z,50.11
2019-03-13T03:23:22.326Z,50.10
2019-03-13T03:24:24.516Z,50.09
2019-03-13T03:25:26.776Z,50.09
2019-03-13T03:26:28.988Z,50.09
2019-03-13T03:27:31.168Z,50.15
2019-03-13T03:28:33.364Z,50.09
2019-03-13T03:29:38.637Z,50.09
2019-03-13T03:30:39.432Z,50.08
2019-03-13T03:31:41.636Z,50.14
2019-03-13T03:32:43.851Z,50.15
2019-03-13T03:33:46.036Z,50.12
2019-03-13T03:34:48.238Z,50.10
2019-03-13T03:35:50.466Z,50.11
2019-03-13T03:36:52.672Z,50.11
2019-03-13T03:37:54.879Z,50.09
2019-03-13T03:38:57.269Z,50.12
2019-03-13T03:39:59.453Z,50.11
2019-03-13T03:41:01.683Z,50.14
2019-03-13T03:42:03.852Z,50.05
2019-03-13T03:43:06.047Z,50.07
2019-03-13T03:44:08.243Z,50.09
2019-03-13T03:45:10.444Z,50.15
2019-03-13T03:46:12.848Z,50.10
2019-03-13T03:47:15.081Z,50.13
2019-03-13T03:48:17.298Z,50.16
2019-03-13T03:49:19.474Z,50.10
2019-03-13T03:50:21.931Z,50.14
2019-03-13T03:51:24.188Z,50.14
2019-03-13T03:52:26.409Z,50.10
2019-03-13T03:53:28.609Z,50.14
2019-03-13T03:54:30.816Z,50.07
2019-03-13T03:55:33.030Z,50.15
2019-03-13T03:56:35.285Z,50.15
2019-03-13T03:57:37.490Z,50.13
2019-03-13T03:58:39.684Z,50.08
2019-03-13T03:59:41.881Z,50.18
2019-03-13T04:00:44.181Z,50.12
2019-03-13T04:01:46.461Z,50.15
2019-03-13T04:02:49.881Z,50.15
2019-03-13T04:03:52.097Z,50.16
2019-03-13T04:04:54.291Z,50.13
2019-03-13T04:05:56.501Z,50.11
2019-03-13T04:06:58.724Z,50.08
2019-03-13T04:08:00.931Z,50.14
2019-03-13T04:09:03.451Z,50.16
2019-03-13T04:10:05.653Z,50.11
2019-03-13T04:11:07.852Z,50.09
2019-03-13T04:12:10.285Z,50.14
2019-03-13T04:13:12.483Z,50.14
2019-03-13T04:14:14.675Z,50.08
2019-03-13T04:15:16.882Z,50.11
2019-03-13T04:16:19.225Z,50.18
2019-03-13T04:17:21.567Z,50.19
2019-03-13T04:18:23.817Z,50.16
2019-03-13T04:19:26.013Z,50.16
2019-03-13T04:20:29.480Z,50.15
2019-03-13T04:21:31.616Z,50.16
2019-03-13T04:22:33.848Z,50.18
2019-03-13T04:23:36.037Z,50.17
2019-03-13T04:24:38.248Z,50.17
2019-03-13T04:25:40.450Z,50.17
2019-03-13T04:26:45.807Z,50.16
2019-03-13T04:27:48.043Z,50.17
2019-03-13T04:28:50.296Z,50.18
2019-03-13T04:29:52.487Z,50.17
2019-03-13T04:30:54.696Z,50.18
2019-03-13T04:31:56.892Z,50.20
2019-03-13T04:32:59.115Z,50.16
2019-03-13T04:34:01.354Z,50.14
2019-03-13T04:35:03.566Z,50.20
2019-03-13T04:36:05.764Z,50.17
2019-03-13T04:37:07.965Z,50.15
2019-03-13T04:38:10.184Z,50.28
2019-03-13T04:39:12.669Z,50.17
2019-03-13T04:40:14.849Z,50.17
2019-03-13T04:41:17.062Z,50.12
2019-03-13T04:42:19.259Z,50.16
2019-03-13T04:43:21.497Z,50.17
2019-03-13T04:44:23.691Z,50.16
2019-03-13T04:45:25.896Z,50.17
2019-03-13T04:46:28.095Z,50.22
2019-03-13T04:47:30.283Z,50.21
2019-03-13T04:48:32.493Z,50.17
2019-03-13T04:49:34.727Z,50.17
2019-03-13T04:50:36.926Z,50.17
2019-03-13T04:51:39.116Z,50.22
2019-03-13T04:52:41.306Z,50.22
2019-03-13T04:53:43.512Z,50.23
2019-03-13T04:54:45.716Z,50.25
2019-03-13T04:55:47.906Z,50.23
2019-03-13T04:56:50.121Z,50.25
2019-03-13T04:57:52.314Z,50.23
2019-03-13T04:58:54.552Z,50.25
2019-03-13T04:59:56.766Z,50.21
2019-03-13T05:00:59.022Z,50.18
2019-03-13T05:02:01.216Z,50.16
2019-03-13T05:03:03.438Z,50.20
2019-03-13T05:04:05.654Z,50.19
2019-03-13T05:05:07.842Z,50.18
2019-03-13T05:06:10.062Z,50.22
2019-03-13T05:07:12.262Z,50.18
2019-03-13T05:08:14.587Z,50.26
2019-03-13T05:09:16.792Z,50.36
2019-03-13T05:10:19.236Z,50.25
2019-03-13T05:11:21.426Z,50.20
2019-03-13T05:12:23.720Z,50.24
2019-03-13T05:13:25.922Z,50.23
2019-03-13T05:14:28.131Z,50.27
2019-03-13T05:15:30.361Z,50.19
2019-03-13T05:16:32.561Z,50.20
2019-03-13T05:17:34.750Z,50.22
2019-03-13T05:18:36.964Z,50.26
2019-03-13T05:19:39.193Z,50.21
2019-03-13T05:20:41.412Z,50.30
2019-03-13T05:21:43.593Z,50.29
2019-03-13T05:22:45.789Z,50.22
2019-03-13T05:23:50.126Z,50.17
2019-03-13T05:24:52.598Z,50.26
2019-03-13T05:25:54.803Z,50.25
2019-03-13T05:26:56.992Z,50.26
2019-03-13T05:27:59.200Z,50.29
2019-03-13T05:29:01.412Z,50.28
2019-03-13T05:30:03.644Z,50.27
2019-03-13T05:31:05.852Z,50.29
2019-03-13T05:32:08.038Z,50.32
2019-03-13T05:33:10.278Z,50.30
2019-03-13T05:34:12.468Z,50.26
2019-03-13T05:35:14.699Z,50.32
2019-03-13T05:36:17.270Z,50.26
2019-03-13T05:37:19.523Z,50.31
2019-03-13T05:38:21.732Z,50.29
2019-03-13T05:39:23.936Z,50.33
2019-03-13T05:40:26.159Z,50.32
2019-03-13T05:41:28.376Z,50.32
2019-03-13T05:42:30.601Z,50.32
2019-03-13T05:43:32.782Z,50.29
2019-03-13T05:44:35.002Z,50.27
2019-03-13T05:45:37.232Z,50.22
2019-03-13T05:46:39.442Z,50.28
2019-03-13T05:47:41.636Z,50.25
2019-03-13T05:48:43.826Z,50.29
2019-03-13T05:49:46.016Z,50.32
2019-03-13T05:50:48.253Z,50.24
2019-03-13T05:51:50.472Z,50.27
2019-03-13T05:52:52.670Z,50.32
2019-03-13T05:53:54.959Z,50.26
2019-03-13T05:54:57.073Z,50.28
2019-03-13T05:55:59.310Z,50.29
2019-03-13T05:57:01.502Z,50.26
2019-03-13T05:58:03.728Z,50.20
2019-03-13T05:59:05.946Z,50.26
2019-03-13T06:00:08.182Z,50.30
2019-03-13T06:01:10.464Z,50.28
2019-03-13T06:02:12.685Z,50.29
2019-03-13T06:03:14.886Z,50.37
2019-03-13T06:04:17.084Z,50.34
2019-03-13T06:05:19.285Z,50.25
2019-03-13T06:06:21.522Z,50.23
2019-03-13T06:07:23.753Z,50.34
2019-03-13T06:08:25.941Z,50.35
2019-03-13T06:09:28.149Z,50.25
2019-03-13T06:10:30.344Z,50.32
2019-03-13T06:11:32.587Z,50.24
2019-03-13T06:12:34.791Z,50.31
2019-03-13T06:13:36.994Z,50.30
2019-03-13T06:14:39.192Z,50.30
2019-03-13T06:15:41.413Z,50.24
2019-03-13T06:16:43.650Z,50.25
2019-03-13T06:17:45.869Z,50.19
2019-03-13T06:18:48.062Z,50.26
2019-03-13T06:19:50.330Z,50.31
2019-03-13T06:20:52.521Z,50.31
2019-03-13T06:21:54.756Z,50.30
2019-03-13T06:22:56.935Z,50.28
2019-03-13T06:23:59.141Z,50.29
2019-03-13T06:25:01.359Z,50.27
2019-03-13T06:26:03.585Z,50.28
2019-03-13T06:27:05.805Z,50.24
2019-03-13T06:28:08.085Z,50.33
2019-03-13T06:29:10.294Z,50.33
2019-03-13T06:30:12.646Z,50.33
2019-03-13T06:31:14.839Z,50.33
2019-03-13T06:32:17.065Z,50.33
2019-03-13T06:33:22.069Z,50.38
2019-03-13T06:34:24.283Z,50.29
2019-03-13T06:35:26.491Z,50.39
2019-03-13T06:36:28.690Z,50.37
2019-03-13T06:37:30.937Z,50.35
2019-03-13T06:38:33.143Z,50.39
2019-03-13T06:39:35.366Z,50.33
2019-03-13T06:40:37.559Z,50.36
2019-03-13T06:41:39.761Z,50.35
2019-03-13T06:42:41.995Z,50.37
2019-03-13T06:43:44.200Z,50.36
2019-03-13T06:44:46.407Z,50.37
2019-03-13T06:45:48.621Z,50.39
2019-03-13T06:46:51.095Z,50.36
2019-03-13T06:47:53.297Z,50.45
2019-03-13T06:48:55.507Z,50.42
2019-03-13T06:49:57.719Z,50.53
2019-03-13T06:50:59.974Z,50.47
2019-03-13T06:52:02.205Z,50.48
2019-03-13T06:53:04.639Z,50.50
2019-03-13T06:54:06.846Z,50.53
2019-03-13T06:55:09.047Z,50.51
2019-03-13T06:56:11.259Z,50.59
2019-03-13T06:57:13.462Z,50.52
2019-03-13T06:58:16.903Z,50.55
2019-03-13T06:59:23.884Z,50.53
2019-03-13T07:00:50.411Z,50.53
2019-03-13T07:02:17.067Z,50.54
2019-03-13T07:03:24.551Z,50.52
2019-03-13T07:04:33.950Z,50.53
2019-03-13T07:05:53.879Z,50.54
2019-03-13T07:07:11.137Z,50.55
2019-03-13T07:08:32.345Z,50.54
2019-03-13T07:09:59.008Z,50.59
2019-03-13T07:11:23.198Z,50.64
2019-03-13T07:12:39.643Z,50.76
2019-03-13T07:13:51.013Z,50.64
2019-03-13T07:15:12.164Z,50.71
2019-03-13T07:16:45.595Z,50.67
2019-03-13T07:18:05.528Z,50.63
2019-03-13T07:19:19.330Z,50.66
2019-03-13T07:20:45.653Z,50.69
2019-03-13T07:22:01.326Z,50.66
2019-03-13T07:23:20.158Z,50.79
2019-03-13T07:24:39.915Z,50.72
2019-03-13T07:25:54.166Z,50.65
2019-03-13T07:27:12.435Z,50.66
2019-03-13T07:28:32.131Z,50.54
2019-03-13T07:29:48.996Z,50.44
2019-03-13T07:30:59.323Z,50.42
2019-03-13T07:32:19.189Z,50.43
2019-03-13T07:33:39.038Z,50.45
2019-03-13T07:35:18.602Z,50.42
2019-03-13T07:36:48.710Z,50.36
2019-03-13T07:38:09.899Z,50.37
2019-03-13T07:39:24.817Z,50.31
2019-03-13T07:40:52.043Z,50.34
2019-03-13T07:42:19.261Z,50.35
2019-03-13T07:43:43.264Z,50.36
2019-03-13T07:45:03.293Z,50.29
2019-03-13T07:46:21.020Z,50.36
2019-03-13T07:47:57.612Z,50.29
2019-03-13T07:49:31.154Z,50.33
2019-03-13T07:50:55.700Z,50.32
2019-03-13T07:52:16.850Z,50.35
2019-03-13T07:53:44.011Z,50.39
2019-03-13T07:55:14.214Z,50.40
2019-03-13T07:56:38.166Z,50.41
2019-03-13T07:57:50.803Z,50.40
2019-03-13T07:59:14.776Z,50.42
2019-03-13T08:00:28.017Z,50.40
2019-03-13T08:01:58.300Z,50.37
2019-03-13T08:03:07.015Z,50.48
2019-03-13T08:04:28.148Z,50.53
2019-03-13T08:05:37.075Z,50.46
2019-03-13T08:06:47.690Z,50.48
2019-03-13T08:08:07.860Z,50.50
2019-03-13T08:09:28.033Z,50.50
2019-03-13T08:10:49.208Z,50.51
2019-03-13T08:12:28.988Z,50.54
2019-03-13T08:13:48.554Z,50.59
2019-03-13T08:15:09.047Z,50.68
2019-03-13T08:16:33.241Z,50.60
2019-03-13T08:17:57.231Z,50.62
2019-03-13T08:19:18.387Z,50.61
2019-03-13T08:20:54.891Z,50.67
2019-03-13T08:22:16.268Z,50.68
2019-03-13T08:23:36.922Z,50.68
2019-03-13T08:24:50.507Z,50.68
2019-03-13T08:26:03.370Z,50.66
2019-03-13T08:27:24.547Z,50.68
2019-03-13T08:28:41.894Z,50.89
2019-03-13T08:30:01.811Z,50.80
2019-03-13T08:31:12.319Z,50.72
2019-03-13T08:32:32.033Z,50.74
2019-03-13T08:33:53.173Z,50.68
2019-03-13T08:35:17.395Z,50.70
2019-03-13T08:36:29.752Z,50.78
2019-03-13T08:37:50.951Z,50.68
2019-03-13T08:39:09.091Z,50.63
2019-03-13T08:40:19.962Z,50.62
2019-03-13T08:41:36.532Z,50.56
2019-03-13T08:43:12.882Z,50.58
2019-03-13T08:44:46.634Z,50.54
2019-03-13T08:46:07.771Z,50.55
2019-03-13T08:47:27.599Z,50.41
2019-03-13T08:48:47.451Z,50.42
2019-03-13T08:50:02.299Z,50.44
2019-03-13T08:51:21.753Z,50.38
2019-03-13T08:52:54.847Z,50.40
2019-03-13T08:54:13.214Z,50.39
2019-03-13T08:55:34.848Z,50.30
2019-03-13T08:57:02.067Z,50.37
2019-03-13T08:58:17.833Z,50.42
2019-03-13T08:59:35.458Z,50.37
2019-03-13T09:00:56.628Z,50.36
2019-03-13T09:02:21.005Z,50.39
2019-03-13T09:03:27.652Z,50.38
2019-03-13T09:04:57.843Z,50.37
2019-03-13T09:06:25.772Z,50.40
2019-03-13T09:07:47.022Z,50.40
2019-03-13T09:09:06.859Z,50.36
2019-03-13T09:10:37.205Z,50.34
2019-03-13T09:12:10.504Z,50.35
2019-03-13T09:13:46.757Z,50.39
2019-03-13T09:15:00.380Z,50.41
2019-03-13T09:16:11.115Z,50.37
2019-03-13T09:17:41.289Z,50.45
2019-03-13T09:19:01.284Z,50.42
2019-03-13T09:20:28.498Z,50.50
2019-03-13T09:21:49.658Z,50.45
2019-03-13T09:23:08.668Z,50.45
2019-03-13T09:24:16.157Z,50.59
2019-03-13T09:25:43.289Z,50.52
2019-03-13T09:27:10.294Z,50.47
2019-03-13T09:28:40.683Z,50.59
2019-03-13T09:30:01.854Z,50.58
2019-03-13T09:31:32.531Z,50.56
2019-03-13T09:32:54.405Z,50.57
2019-03-13T09:34:16.060Z,50.57
2019-03-13T09:35:47.596Z,50.60
2019-03-13T09:37:09.208Z,50.58
2019-03-13T09:38:31.544Z,50.57
2019-03-13T09:39:52.682Z,50.63
2019-03-13T09:41:26.300Z,50.55
2019-03-13T09:43:00.853Z,50.73
2019-03-13T09:44:23.079Z,50.70
2019-03-13T09:45:54.366Z,50.69
2019-03-13T09:47:22.109Z,50.64
2019-03-13T09:48:53.218Z,50.54
2019-03-13T09:50:11.702Z,50.62
2019-03-13T09:51:19.886Z,50.63
2019-03-13T09:52:40.021Z,50.62
2019-03-13T09:54:07.322Z,50.63
2019-03-13T09:55:19.367Z,50.55
2019-03-13T09:56:35.758Z,50.58
2019-03-13T09:57:57.536Z,50.74
2019-03-13T09:59:13.579Z,50.70
2019-03-13T10:00:44.363Z,50.65
2019-03-13T10:02:10.983Z,50.74
2019-03-13T10:03:30.684Z,50.65
2019-03-13T10:05:07.352Z,50.66
2019-03-13T10:06:29.780Z,50.71
2019-03-13T10:07:41.938Z,50.74
2019-03-13T10:09:04.823Z,50.72
2019-03-13T10:10:29.752Z,50.67
2019-03-13T10:11:52.034Z,50.79
2019-03-13T10:13:15.900Z,50.89
2019-03-13T10:14:29.404Z,50.90
2019-03-13T10:15:57.390Z,50.88
2019-03-13T10:17:25.757Z,50.84
2019-03-13T10:18:47.986Z,50.89
2019-03-13T10:20:09.371Z,50.88
2019-03-13T10:21:42.850Z,50.87
2019-03-13T10:23:02.204Z,50.87
2019-03-13T10:24:26.324Z,50.79
2019-03-13T10:25:53.348Z,50.63
2019-03-13T10:27:13.444Z,50.59
2019-03-13T10:28:47.190Z,50.58
2019-03-13T10:30:11.626Z,50.49
2019-03-13T10:31:26.152Z,50.38
2019-03-13T10:32:39.082Z,50.40
2019-03-13T10:34:16.118Z,50.33
2019-03-13T10:35:55.789Z,50.33
2019-03-13T10:37:13.229Z,50.28
2019-03-13T10:38:38.098Z,50.30
2019-03-13T10:40:00.451Z,50.27
2019-03-13T10:41:12.768Z,50.28
2019-03-13T10:42:35.015Z,50.32
2019-03-13T10:43:50.918Z,50.24
2019-03-13T10:45:11.723Z,50.41
2019-03-13T10:46:21.446Z,50.40
2019-03-13T10:47:49.513Z,50.40
2019-03-13T10:49:14.486Z,50.51
2019-03-13T10:50:52.416Z,50.41
2019-03-13T10:52:05.628Z,50.62
2019-03-13T10:53:33.686Z,50.47
2019-03-13T10:54:47.538Z,50.49
2019-03-13T10:56:11.775Z,50.57
2019-03-13T10:57:42.038Z,50.43
2019-03-13T10:59:03.200Z,50.43
2019-03-13T11:00:23.044Z,50.56
2019-03-13T11:01:41.109Z,50.59
2019-03-13T11:03:02.270Z,50.53
2019-03-13T11:04:23.602Z,50.57
2019-03-13T11:05:40.158Z,50.58
2019-03-13T11:06:55.402Z,50.66
2019-03-13T11:08:04.432Z,50.61
2019-03-13T11:09:18.190Z,50.62
2019-03-13T11:10:42.432Z,50.64
2019-03-13T11:11:58.569Z,50.63
2019-03-13T11:13:18.427Z,50.75
2019-03-13T11:14:48.809Z,50.67
2019-03-13T11:16:08.710Z,50.71
2019-03-13T11:17:32.630Z,50.88
2019-03-13T11:18:44.191Z,50.89
2019-03-13T11:20:02.343Z,50.99
2019-03-13T11:21:12.334Z,50.99
2019-03-13T11:22:29.136Z,51.13
2019-03-13T11:23:48.926Z,50.93
2019-03-13T11:24:58.023Z,50.94
2019-03-13T11:26:31.850Z,50.97
2019-03-13T11:27:50.485Z,51.06
2019-03-13T11:29:14.754Z,51.07
2019-03-13T11:30:34.711Z,51.09
2019-03-13T11:31:47.641Z,51.10
2019-03-13T11:33:07.946Z,50.96
2019-03-13T11:34:47.448Z,51.04
2019-03-13T11:36:06.843Z,51.06
2019-03-13T11:37:30.886Z,51.15
2019-03-13T11:38:52.065Z,51.16
2019-03-13T11:40:13.298Z,51.34
2019-03-13T11:41:43.531Z,51.24
2019-03-13T11:43:10.804Z,51.25
2019-03-13T11:44:30.855Z,51.35
2019-03-13T11:45:51.972Z,51.18
2019-03-13T11:47:05.451Z,51.19
2019-03-13T11:48:25.667Z,51.10
2019-03-13T11:49:48.838Z,51.01
2019-03-13T11:51:08.247Z,51.00
2019-03-13T11:52:28.289Z,50.90
2019-03-13T11:54:04.973Z,50.80
2019-03-13T11:55:40.143Z,50.69
2019-03-13T11:57:04.587Z,50.57
2019-03-13T11:58:26.756Z,50.52
2019-03-13T11:59:49.610Z,50.44
2019-03-13T12:01:20.037Z,50.35
2019-03-13T12:02:53.408Z,50.32
2019-03-13T12:04:07.526Z,50.28
2019-03-13T12:05:34.439Z,50.33
2019-03-13T12:07:01.602Z,50.25
2019-03-13T12:08:33.492Z,50.25
2019-03-13T12:09:45.545Z,50.25
2019-03-13T12:11:09.791Z,50.29
2019-03-13T12:12:35.147Z,50.26
2019-03-13T12:14:02.357Z,50.40
2019-03-13T12:15:23.182Z,50.46
2019-03-13T12:16:43.175Z,50.42
2019-03-13T12:18:03.475Z,50.44
2019-03-13T12:19:16.249Z,50.49
2019-03-13T12:20:34.773Z,50.43
2019-03-13T12:21:52.885Z,50.45
2019-03-13T12:23:13.094Z,50.56
2019-03-13T12:24:37.104Z,50.63
2019-03-13T12:25:57.179Z,50.58
2019-03-13T12:27:17.252Z,50.68
2019-03-13T12:28:53.785Z,50.69
2019-03-13T12:30:19.595Z,50.63
2019-03-13T12:31:40.701Z,50.69
2019-03-13T12:33:14.065Z,50.81
2019-03-13T12:34:35.238Z,50.81
2019-03-13T12:35:55.132Z,50.91
2019-03-13T12:37:25.591Z,50.87
2019-03-13T12:38:35.191Z,50.85
2019-03-13T12:39:52.422Z,50.89
2019-03-13T12:41:12.158Z,50.94
2019-03-13T12:42:45.557Z,50.90
2019-03-13T12:44:04.995Z,50.90
2019-03-13T12:45:35.288Z,50.93
2019-03-13T12:47:02.699Z,51.19
2019-03-13T12:48:39.375Z,50.91
2019-03-13T12:50:03.528Z,51.00
2019-03-13T12:51:33.668Z,51.08
2019-03-13T12:52:53.846Z,51.09
2019-03-13T12:54:15.052Z,51.12
2019-03-13T12:55:39.480Z,51.14
2019-03-13T12:56:52.748Z,51.16
2019-03-13T12:58:10.495Z,51.17
2019-03-13T12:59:31.659Z,51.26
2019-03-13T13:01:01.887Z,51.23
2019-03-13T13:02:23.040Z,51.32
2019-03-13T13:03:53.391Z,51.34
2019-03-13T13:05:14.551Z,51.21
2019-03-13T13:06:31.623Z,51.24
2019-03-13T13:07:48.895Z,51.13
2019-03-13T13:09:10.200Z,51.04
2019-03-13T13:10:32.048Z,51.03
2019-03-13T13:12:06.219Z,51.01
2019-03-13T13:13:40.568Z,50.92
2019-03-13T13:14:54.738Z,50.88
2019-03-13T13:16:25.422Z,50.83
2019-03-13T13:17:38.909Z,50.78
2019-03-13T13:18:58.316Z,50.71
2019-03-13T13:20:01.871Z,50.65
2019-03-13T13:21:05.598Z,50.79
2019-03-13T13:22:08.680Z,50.82
2019-03-13T13:23:12.400Z,50.74
2019-03-13T13:24:15.959Z,50.77
2019-03-13T13:25:19.259Z,50.79
2019-03-13T13:26:22.538Z,50.82
2019-03-13T13:27:26.022Z,50.75
2019-03-13T13:28:32.303Z,50.85
2019-03-13T13:29:39.851Z,50.79
2019-03-13T13:30:48.900Z,50.77
2019-03-13T13:31:55.165Z,50.87
2019-03-13T13:32:56.601Z,50.84
2019-03-13T13:33:58.899Z,50.86
2019-03-13T13:35:01.067Z,50.82
2019-03-13T13:36:03.333Z,50.93
2019-03-13T13:37:05.723Z,50.86
2019-03-13T13:38:10.230Z,50.91
2019-03-13T13:39:13.507Z,50.92
2019-03-13T13:40:15.798Z,50.92
2019-03-13T13:41:17.915Z,50.92
2019-03-13T13:42:20.115Z,50.88
2019-03-13T13:43:22.318Z,50.84
2019-03-13T13:44:24.941Z,50.90
2019-03-13T13:45:32.811Z,50.99
2019-03-13T13:46:35.021Z,51.09
2019-03-13T13:47:37.317Z,51.05
2019-03-13T13:48:39.511Z,51.15
2019-03-13T13:49:42.719Z,51.02
2019-03-13T13:50:44.919Z,51.00
2019-03-13T13:51:47.145Z,51.04
2019-03-13T13:52:49.358Z,51.06
2019-03-13T13:53:55.704Z,51.14
2019-03-13T13:54:58.367Z,51.12
2019-03-13T13:56:00.582Z,51.12
2019-03-13T13:57:06.054Z,51.17
2019-03-13T13:58:10.042Z,51.12
2019-03-13T13:59:12.230Z,51.25
2019-03-13T14:00:16.510Z,51.16
2019-03-13T14:01:18.718Z,51.21
2019-03-13T14:02:20.993Z,51.21
2019-03-13T14:03:23.188Z,51.23
2019-03-13T14:04:25.424Z,51.26
2019-03-13T14:05:28.704Z,51.25
2019-03-13T14:06:33.736Z,51.23
2019-03-13T14:07:35.962Z,51.23
2019-03-13T14:08:38.272Z,51.27
2019-03-13T14:09:40.490Z,51.47
2019-03-13T14:10:42.702Z,51.32
2019-03-13T14:11:48.108Z,51.30
2019-03-13T14:12:50.343Z,51.34
2019-03-13T14:13:52.565Z,51.28
2019-03-13T14:14:55.768Z,51.24
2019-03-13T14:15:58.003Z,51.20
2019-03-13T14:17:00.218Z,51.17
2019-03-13T14:18:03.523Z,51.17
2019-03-13T14:19:05.716Z,51.20
2019-03-13T14:20:07.899Z,51.16
2019-03-13T14:21:10.106Z,51.09
2019-03-13T14:22:12.313Z,51.08
2019-03-13T14:23:14.554Z,51.05
2019-03-13T14:24:17.509Z,50.96
2019-03-13T14:25:19.879Z,50.99
2019-03-13T14:26:22.069Z,50.93
2019-03-13T14:27:24.262Z,50.82
2019-03-13T14:28:26.485Z,50.84
2019-03-13T14:29:28.691Z,50.82
2019-03-13T14:30:30.900Z,50.89
2019-03-13T14:31:33.107Z,50.91
2019-03-13T14:32:38.374Z,50.89
2019-03-13T14:33:40.593Z,50.91
2019-03-13T14:34:42.839Z,50.87
2019-03-13T14:35:46.262Z,50.85
2019-03-13T14:36:48.792Z,50.86
2019-03-13T14:37:51.003Z,50.86
2019-03-13T14:38:53.254Z,50.87
2019-03-13T14:39:55.460Z,50.91
2019-03-13T14:40:57.676Z,51.03
2019-03-13T14:41:59.916Z,50.99
2019-03-13T14:43:02.113Z,51.04
2019-03-13T14:44:04.332Z,50.98
2019-03-13T14:45:06.554Z,50.94
2019-03-13T14:46:08.787Z,50.96
2019-03-13T14:47:11.024Z,51.11
2019-03-13T14:48:13.252Z,51.06
2019-03-13T14:49:15.484Z,50.97
2019-03-13T14:50:17.713Z,51.04
2019-03-13T14:51:20.179Z,51.04
2019-03-13T14:52:22.373Z,50.96
2019-03-13T14:53:24.586Z,51.11
2019-03-13T14:54:26.827Z,51.05
2019-03-13T14:55:29.065Z,51.06
2019-03-13T14:56:31.295Z,51.05
2019-03-13T14:57:33.533Z,51.01
2019-03-13T14:58:35.744Z,50.97